sensor_id;sensor_type;location;lat;lon;timestamp;temperature;humidity
16968;DHT22;64862;54.398;10.126;2023-10-08T00:02:49;12.60;97.00
16968;DHT22;64862;54.398;10.126;2023-10-08T00:12:53;12.50;96.60
16968;DHT22;64862;54.398;10.126;2023-10-08T00:23:03;12.40;96.30
16968;DHT22;64862;54.398;10.126;2023-10-08T00:33:09;12.40;95.80
16968;DHT22;64862;54.398;10.126;2023-10-08T00:43:33;12.40;95.40
16968;DHT22;64862;54.398;10.126;2023-10-08T00:53:36;12.40;95.40
16968;DHT22;64862;54.398;10.126;2023-10-08T01:03:42;12.40;95.40
16968;DHT22;64862;54.398;10.126;2023-10-08T01:13:45;12.30;95.40
16968;DHT22;64862;54.398;10.126;2023-10-08T01:23:49;12.40;95.70
16968;DHT22;64862;54.398;10.126;2023-10-08T01:33:54;12.40;95.30
16968;DHT22;64862;54.398;10.126;2023-10-08T01:43:59;12.30;95.10
16968;DHT22;64862;54.398;10.126;2023-10-08T01:54:02;12.30;95.20
16968;DHT22;64862;54.398;10.126;2023-10-08T02:04:13;12.20;94.80
16968;DHT22;64862;54.398;10.126;2023-10-08T02:14:17;12.20;95.20
16968;DHT22;64862;54.398;10.126;2023-10-08T02:24:22;12.30;95.70
16968;DHT22;64862;54.398;10.126;2023-10-08T02:34:26;12.30;95.70
16968;DHT22;64862;54.398;10.126;2023-10-08T02:44:30;12.30;95.70
16968;DHT22;64862;54.398;10.126;2023-10-08T02:54:32;12.20;95.80
16968;DHT22;64862;54.398;10.126;2023-10-08T03:04:39;12.20;95.60
16968;DHT22;64862;54.398;10.126;2023-10-08T03:14:44;12.10;95.90
16968;DHT22;64862;54.398;10.126;2023-10-08T03:25:05;11.90;95.90
16968;DHT22;64862;54.398;10.126;2023-10-08T03:35:16;11.80;96.10
16968;DHT22;64862;54.398;10.126;2023-10-08T03:45:30;11.60;96.00
16968;DHT22;64862;54.398;10.126;2023-10-08T03:55:52;11.60;95.90
16968;DHT22;64862;54.398;10.126;2023-10-08T04:05:57;11.60;95.40
16968;DHT22;64862;54.398;10.126;2023-10-08T04:16:15;11.60;95.20
16968;DHT22;64862;54.398;10.126;2023-10-08T04:26:22;11.60;95.30
16968;DHT22;64862;54.398;10.126;2023-10-08T04:36:26;11.60;95.40
16968;DHT22;64862;54.398;10.126;2023-10-08T04:46:30;11.60;95.00
16968;DHT22;64862;54.398;10.126;2023-10-08T04:56:48;11.50;94.90
16968;DHT22;64862;54.398;10.126;2023-10-08T05:06:53;11.20;95.00
16968;DHT22;64862;54.398;10.126;2023-10-08T05:17:33;11.10;95.30
16968;DHT22;64862;54.398;10.126;2023-10-08T05:27:46;11.30;95.20
16968;DHT22;64862;54.398;10.126;2023-10-08T05:38:00;11.20;95.00
16968;DHT22;64862;54.398;10.126;2023-10-08T05:48:14;11.10;94.70
16968;DHT22;64862;54.398;10.126;2023-10-08T05:58:17;10.90;94.70
16968;DHT22;64862;54.398;10.126;2023-10-08T06:08:37;10.70;94.60
16968;DHT22;64862;54.398;10.126;2023-10-08T06:18:55;10.80;95.70
16968;DHT22;64862;54.398;10.126;2023-10-08T06:28:57;10.90;94.90
16968;DHT22;64862;54.398;10.126;2023-10-08T06:39:00;10.50;94.70
16968;DHT22;64862;54.398;10.126;2023-10-08T06:49:07;10.60;95.30
16968;DHT22;64862;54.398;10.126;2023-10-08T06:59:13;10.80;95.80
16968;DHT22;64862;54.398;10.126;2023-10-08T07:09:18;11.10;96.30
16968;DHT22;64862;54.398;10.126;2023-10-08T07:19:31;11.30;96.70
16968;DHT22;64862;54.398;10.126;2023-10-08T07:29:37;11.40;97.20
16968;DHT22;64862;54.398;10.126;2023-10-08T07:39:41;11.60;97.90
16968;DHT22;64862;54.398;10.126;2023-10-08T07:49:47;11.80;98.50
16968;DHT22;64862;54.398;10.126;2023-10-08T07:59:50;12.00;98.80
16968;DHT22;64862;54.398;10.126;2023-10-08T08:09:55;12.10;98.80
16968;DHT22;64862;54.398;10.126;2023-10-08T08:20:01;12.20;98.60
16968;DHT22;64862;54.398;10.126;2023-10-08T08:30:18;12.40;97.40
16968;DHT22;64862;54.398;10.126;2023-10-08T08:40:22;12.50;96.00
16968;DHT22;64862;54.398;10.126;2023-10-08T08:50:25;12.60;94.40
16968;DHT22;64862;54.398;10.126;2023-10-08T09:00:30;12.60;93.80
16968;DHT22;64862;54.398;10.126;2023-10-08T09:10:32;12.70;92.00
16968;DHT22;64862;54.398;10.126;2023-10-08T09:20:39;12.80;86.30
16968;DHT22;64862;54.398;10.126;2023-10-08T09:30:44;12.90;86.10
16968;DHT22;64862;54.398;10.126;2023-10-08T09:40:52;13.00;85.00
16968;DHT22;64862;54.398;10.126;2023-10-08T09:50:55;13.20;84.80
16968;DHT22;64862;54.398;10.126;2023-10-08T10:01:02;13.30;80.80
16968;DHT22;64862;54.398;10.126;2023-10-08T10:11:04;13.50;76.70
16968;DHT22;64862;54.398;10.126;2023-10-08T10:21:30;13.70;80.70
16968;DHT22;64862;54.398;10.126;2023-10-08T10:31:33;13.70;83.00
16968;DHT22;64862;54.398;10.126;2023-10-08T10:41:37;13.80;79.70
16968;DHT22;64862;54.398;10.126;2023-10-08T10:51:42;13.80;78.50
16968;DHT22;64862;54.398;10.126;2023-10-08T11:01:49;13.70;77.20
16968;DHT22;64862;54.398;10.126;2023-10-08T11:11:53;13.70;77.50
16968;DHT22;64862;54.398;10.126;2023-10-08T11:21:57;13.70;76.30
16968;DHT22;64862;54.398;10.126;2023-10-08T11:32:00;13.80;74.90
16968;DHT22;64862;54.398;10.126;2023-10-08T11:42:04;14.00;75.60
16968;DHT22;64862;54.398;10.126;2023-10-08T11:52:17;14.00;77.70
16968;DHT22;64862;54.398;10.126;2023-10-08T12:02:23;14.10;75.60
16968;DHT22;64862;54.398;10.126;2023-10-08T12:12:25;14.20;75.40
16968;DHT22;64862;54.398;10.126;2023-10-08T12:22:29;14.20;75.00
16968;DHT22;64862;54.398;10.126;2023-10-08T12:32:32;14.10;73.00
16968;DHT22;64862;54.398;10.126;2023-10-08T12:42:35;14.20;73.50
16968;DHT22;64862;54.398;10.126;2023-10-08T12:52:37;14.20;72.80
16968;DHT22;64862;54.398;10.126;2023-10-08T13:02:44;14.20;74.90
16968;DHT22;64862;54.398;10.126;2023-10-08T13:12:53;14.30;74.90
16968;DHT22;64862;54.398;10.126;2023-10-08T13:22:57;14.30;74.00
16968;DHT22;64862;54.398;10.126;2023-10-08T13:32:58;14.20;74.80
16968;DHT22;64862;54.398;10.126;2023-10-08T13:43:02;14.20;75.60
16968;DHT22;64862;54.398;10.126;2023-10-08T13:53:05;14.20;78.40
16968;DHT22;64862;54.398;10.126;2023-10-08T14:03:10;14.10;81.30
16968;DHT22;64862;54.398;10.126;2023-10-08T14:13:15;14.10;81.00
16968;DHT22;64862;54.398;10.126;2023-10-08T14:23:21;14.10;79.80
16968;DHT22;64862;54.398;10.126;2023-10-08T14:33:25;14.10;78.60
16968;DHT22;64862;54.398;10.126;2023-10-08T14:43:33;14.00;83.40
16968;DHT22;64862;54.398;10.126;2023-10-08T14:53:38;13.90;86.90
16968;DHT22;64862;54.398;10.126;2023-10-08T15:03:42;13.70;88.10
16968;DHT22;64862;54.398;10.126;2023-10-08T15:13:45;13.70;89.70
16968;DHT22;64862;54.398;10.126;2023-10-08T15:23:51;13.50;90.30
16968;DHT22;64862;54.398;10.126;2023-10-08T15:33:53;13.40;91.10
16968;DHT22;64862;54.398;10.126;2023-10-08T15:43:56;13.40;91.10
16968;DHT22;64862;54.398;10.126;2023-10-08T15:53:59;13.30;90.10
16968;DHT22;64862;54.398;10.126;2023-10-08T16:04:03;13.20;90.90
16968;DHT22;64862;54.398;10.126;2023-10-08T16:14:07;13.20;91.30
16968;DHT22;64862;54.398;10.126;2023-10-08T16:24:11;13.20;90.10
16968;DHT22;64862;54.398;10.126;2023-10-08T16:34:13;13.10;90.20
16968;DHT22;64862;54.398;10.126;2023-10-08T16:44:18;13.10;90.80
16968;DHT22;64862;54.398;10.126;2023-10-08T16:54:20;13.10;91.00
16968;DHT22;64862;54.398;10.126;2023-10-08T17:04:23;13.00;91.60
16968;DHT22;64862;54.398;10.126;2023-10-08T17:14:26;12.90;91.70
16968;DHT22;64862;54.398;10.126;2023-10-08T17:24:32;12.90;89.60
16968;DHT22;64862;54.398;10.126;2023-10-08T17:34:34;12.90;90.30
16968;DHT22;64862;54.398;10.126;2023-10-08T17:44:38;13.00;89.20
16968;DHT22;64862;54.398;10.126;2023-10-08T17:54:40;12.80;90.00
16968;DHT22;64862;54.398;10.126;2023-10-08T18:04:44;12.80;91.60
16968;DHT22;64862;54.398;10.126;2023-10-08T18:14:47;12.60;92.20
16968;DHT22;64862;54.398;10.126;2023-10-08T18:24:53;12.50;92.00
16968;DHT22;64862;54.398;10.126;2023-10-08T18:34:55;12.40;92.60
16968;DHT22;64862;54.398;10.126;2023-10-08T18:44:58;12.40;92.70
16968;DHT22;64862;54.398;10.126;2023-10-08T18:55:00;12.40;92.70
16968;DHT22;64862;54.398;10.126;2023-10-08T19:05:04;12.50;92.90
16968;DHT22;64862;54.398;10.126;2023-10-08T19:15:08;12.30;92.80
16968;DHT22;64862;54.398;10.126;2023-10-08T19:25:15;12.40;92.70
16968;DHT22;64862;54.398;10.126;2023-10-08T19:35:17;12.50;92.20
16968;DHT22;64862;54.398;10.126;2023-10-08T19:45:22;12.40;92.60
16968;DHT22;64862;54.398;10.126;2023-10-08T19:55:24;12.40;93.10
16968;DHT22;64862;54.398;10.126;2023-10-08T20:05:29;12.40;92.90
16968;DHT22;64862;54.398;10.126;2023-10-08T20:15:31;12.40;93.40
16968;DHT22;64862;54.398;10.126;2023-10-08T20:25:37;12.30;93.00
16968;DHT22;64862;54.398;10.126;2023-10-08T20:35:42;12.40;92.20
16968;DHT22;64862;54.398;10.126;2023-10-08T20:45:46;12.50;91.50
16968;DHT22;64862;54.398;10.126;2023-10-08T20:55:48;12.60;91.10
16968;DHT22;64862;54.398;10.126;2023-10-08T21:05:53;12.60;91.20
16968;DHT22;64862;54.398;10.126;2023-10-08T21:15:55;12.60;91.40
16968;DHT22;64862;54.398;10.126;2023-10-08T21:26:02;12.60;91.40
16968;DHT22;64862;54.398;10.126;2023-10-08T21:36:04;12.70;91.70
16968;DHT22;64862;54.398;10.126;2023-10-08T21:46:19;12.60;93.10
16968;DHT22;64862;54.398;10.126;2023-10-08T21:56:22;12.50;92.60
16968;DHT22;64862;54.398;10.126;2023-10-08T22:06:26;12.40;93.40
16968;DHT22;64862;54.398;10.126;2023-10-08T22:16:27;12.30;94.70
16968;DHT22;64862;54.398;10.126;2023-10-08T22:26:34;12.10;95.00
16968;DHT22;64862;54.398;10.126;2023-10-08T22:36:36;11.90;95.80
16968;DHT22;64862;54.398;10.126;2023-10-08T22:46:46;11.90;96.60
16968;DHT22;64862;54.398;10.126;2023-10-08T22:56:58;11.90;97.20
16968;DHT22;64862;54.398;10.126;2023-10-08T23:07:01;12.10;97.70
16968;DHT22;64862;54.398;10.126;2023-10-08T23:17:04;12.10;97.50
16968;DHT22;64862;54.398;10.126;2023-10-08T23:27:09;11.90;97.90
16968;DHT22;64862;54.398;10.126;2023-10-08T23:37:11;11.90;98.30
16968;DHT22;64862;54.398;10.126;2023-10-08T23:47:23;11.90;98.40
16968;DHT22;64862;54.398;10.126;2023-10-08T23:57:27;11.80;98.30
